sensor_id;sensor_type;location;lat;lon;timestamp;P1;durP1;ratioP1;P2;durP2;ratioP2
73170;SDS011;61381;50.118;19.962;2023-04-28T00:00:59;36.97;;;20.00;;
73170;SDS011;61381;50.118;19.962;2023-04-28T00:06:01;37.03;;;19.23;;
73170;SDS011;61381;50.118;19.962;2023-04-28T00:11:02;27.17;;;13.25;;
73170;SDS011;61381;50.118;19.962;2023-04-28T00:16:04;26.30;;;13.15;;
73170;SDS011;61381;50.118;19.962;2023-04-28T00:21:06;25.00;;;12.45;;
73170;SDS011;61381;50.118;19.962;2023-04-28T00:26:07;23.63;;;11.75;;
73170;SDS011;61381;50.118;19.962;2023-04-28T00:31:09;24.52;;;13.77;;
73170;SDS011;61381;50.118;19.962;2023-04-28T00:36:11;25.60;;;13.20;;
73170;SDS011;61381;50.118;19.962;2023-04-28T00:41:12;29.58;;;14.13;;
73170;SDS011;61381;50.118;19.962;2023-04-28T00:46:17;27.63;;;15.35;;
73170;SDS011;61381;50.118;19.962;2023-04-28T00:51:22;30.00;;;16.08;;
73170;SDS011;61381;50.118;19.962;2023-04-28T00:56:23;42.15;;;22.15;;
73170;SDS011;61381;50.118;19.962;2023-04-28T01:06:26;26.17;;;13.32;;
73170;SDS011;61381;50.118;19.962;2023-04-28T01:11:28;30.08;;;13.00;;
73170;SDS011;61381;50.118;19.962;2023-04-28T01:16:29;26.70;;;13.40;;
73170;SDS011;61381;50.118;19.962;2023-04-28T01:21:32;26.17;;;13.18;;
73170;SDS011;61381;50.118;19.962;2023-04-28T01:26:35;27.58;;;14.02;;
73170;SDS011;61381;50.118;19.962;2023-04-28T01:31:36;27.63;;;14.05;;
73170;SDS011;61381;50.118;19.962;2023-04-28T01:36:37;23.00;;;10.98;;
73170;SDS011;61381;50.118;19.962;2023-04-28T01:41:40;23.73;;;11.93;;
73170;SDS011;61381;50.118;19.962;2023-04-28T01:46:41;25.95;;;11.38;;
73170;SDS011;61381;50.118;19.962;2023-04-28T01:51:42;23.95;;;12.05;;
73170;SDS011;61381;50.118;19.962;2023-04-28T01:56:44;27.10;;;13.73;;
73170;SDS011;61381;50.118;19.962;2023-04-28T02:01:45;29.48;;;15.63;;
73170;SDS011;61381;50.118;19.962;2023-04-28T02:06:46;29.85;;;16.55;;
73170;SDS011;61381;50.118;19.962;2023-04-28T02:11:48;27.92;;;14.88;;
73170;SDS011;61381;50.118;19.962;2023-04-28T02:16:49;31.00;;;15.65;;
73170;SDS011;61381;50.118;19.962;2023-04-28T02:21:50;26.00;;;14.68;;
73170;SDS011;61381;50.118;19.962;2023-04-28T02:26:53;27.50;;;15.23;;
73170;SDS011;61381;50.118;19.962;2023-04-28T02:31:54;29.33;;;14.38;;
73170;SDS011;61381;50.118;19.962;2023-04-28T02:36:55;38.50;;;18.25;;
73170;SDS011;61381;50.118;19.962;2023-04-28T02:41:57;31.55;;;16.85;;
73170;SDS011;61381;50.118;19.962;2023-04-28T02:46:58;34.28;;;17.52;;
73170;SDS011;61381;50.118;19.962;2023-04-28T02:51:59;30.05;;;16.50;;
73170;SDS011;61381;50.118;19.962;2023-04-28T02:57:02;39.03;;;18.38;;
73170;SDS011;61381;50.118;19.962;2023-04-28T03:02:03;36.67;;;19.73;;
73170;SDS011;61381;50.118;19.962;2023-04-28T03:07:04;34.28;;;15.27;;
73170;SDS011;61381;50.118;19.962;2023-04-28T03:12:07;28.23;;;16.50;;
73170;SDS011;61381;50.118;19.962;2023-04-28T03:17:07;30.52;;;16.98;;
73170;SDS011;61381;50.118;19.962;2023-04-28T03:22:09;33.70;;;14.93;;
73170;SDS011;61381;50.118;19.962;2023-04-28T03:27:11;31.23;;;16.23;;
73170;SDS011;61381;50.118;19.962;2023-04-28T03:32:12;34.58;;;16.85;;
73170;SDS011;61381;50.118;19.962;2023-04-28T03:37:13;36.67;;;16.80;;
73170;SDS011;61381;50.118;19.962;2023-04-28T03:42:15;37.80;;;16.48;;
73170;SDS011;61381;50.118;19.962;2023-04-28T03:47:16;33.75;;;16.67;;
73170;SDS011;61381;50.118;19.962;2023-04-28T03:52:17;32.55;;;14.70;;
73170;SDS011;61381;50.118;19.962;2023-04-28T03:57:20;30.25;;;14.07;;
73170;SDS011;61381;50.118;19.962;2023-04-28T04:02:21;30.20;;;14.18;;
73170;SDS011;61381;50.118;19.962;2023-04-28T04:07:22;31.38;;;14.40;;
73170;SDS011;61381;50.118;19.962;2023-04-28T04:12:24;30.35;;;14.75;;
73170;SDS011;61381;50.118;19.962;2023-04-28T04:17:25;31.23;;;14.77;;
73170;SDS011;61381;50.118;19.962;2023-04-28T04:22:26;29.52;;;15.68;;
73170;SDS011;61381;50.118;19.962;2023-04-28T04:27:29;32.63;;;15.35;;
73170;SDS011;61381;50.118;19.962;2023-04-28T04:32:30;40.15;;;16.92;;
73170;SDS011;61381;50.118;19.962;2023-04-28T04:37:31;44.72;;;16.85;;
73170;SDS011;61381;50.118;19.962;2023-04-28T04:42:34;29.77;;;16.33;;
73170;SDS011;61381;50.118;19.962;2023-04-28T04:47:35;29.42;;;15.40;;
73170;SDS011;61381;50.118;19.962;2023-04-28T04:52:36;32.80;;;15.52;;
73170;SDS011;61381;50.118;19.962;2023-04-28T04:57:38;28.52;;;15.13;;
73170;SDS011;61381;50.118;19.962;2023-04-28T05:02:39;24.83;;;15.20;;
73170;SDS011;61381;50.118;19.962;2023-04-28T05:07:41;31.90;;;16.77;;
73170;SDS011;61381;50.118;19.962;2023-04-28T05:12:44;26.33;;;14.73;;
73170;SDS011;61381;50.118;19.962;2023-04-28T05:17:45;29.90;;;15.27;;
73170;SDS011;61381;50.118;19.962;2023-04-28T05:22:46;28.33;;;15.52;;
73170;SDS011;61381;50.118;19.962;2023-04-28T05:27:48;30.75;;;14.98;;
73170;SDS011;61381;50.118;19.962;2023-04-28T05:32:49;25.77;;;13.85;;
73170;SDS011;61381;50.118;19.962;2023-04-28T05:37:50;21.92;;;13.05;;
73170;SDS011;61381;50.118;19.962;2023-04-28T05:42:53;24.65;;;13.23;;
73170;SDS011;61381;50.118;19.962;2023-04-28T05:47:54;23.45;;;12.35;;
73170;SDS011;61381;50.118;19.962;2023-04-28T05:52:55;23.50;;;13.73;;
73170;SDS011;61381;50.118;19.962;2023-04-28T05:57:57;26.02;;;12.60;;
73170;SDS011;61381;50.118;19.962;2023-04-28T06:02:59;27.65;;;13.98;;
73170;SDS011;61381;50.118;19.962;2023-04-28T06:08:00;22.52;;;13.15;;
73170;SDS011;61381;50.118;19.962;2023-04-28T06:13:02;22.60;;;13.10;;
73170;SDS011;61381;50.118;19.962;2023-04-28T06:18:03;23.38;;;13.82;;
73170;SDS011;61381;50.118;19.962;2023-04-28T06:23:04;25.58;;;12.88;;
73170;SDS011;61381;50.118;19.962;2023-04-28T06:28:07;22.60;;;13.07;;
73170;SDS011;61381;50.118;19.962;2023-04-28T06:33:08;18.02;;;10.82;;
73170;SDS011;61381;50.118;19.962;2023-04-28T06:38:09;19.17;;;10.70;;
73170;SDS011;61381;50.118;19.962;2023-04-28T06:43:12;19.45;;;10.57;;
73170;SDS011;61381;50.118;19.962;2023-04-28T06:48:13;17.88;;;10.25;;
73170;SDS011;61381;50.118;19.962;2023-04-28T06:53:14;19.23;;;10.95;;
73170;SDS011;61381;50.118;19.962;2023-04-28T06:58:17;21.35;;;10.43;;
73170;SDS011;61381;50.118;19.962;2023-04-28T07:03:18;20.90;;;9.77;;
73170;SDS011;61381;50.118;19.962;2023-04-28T07:08:19;14.88;;;9.63;;
73170;SDS011;61381;50.118;19.962;2023-04-28T07:13:21;11.38;;;8.80;;
73170;SDS011;61381;50.118;19.962;2023-04-28T07:18:22;14.98;;;9.07;;
73170;SDS011;61381;50.118;19.962;2023-04-28T07:23:23;15.93;;;8.27;;
73170;SDS011;61381;50.118;19.962;2023-04-28T07:28:26;15.50;;;8.32;;
73170;SDS011;61381;50.118;19.962;2023-04-28T07:33:27;10.85;;;7.00;;
73170;SDS011;61381;50.118;19.962;2023-04-28T07:38:28;13.25;;;6.47;;
73170;SDS011;61381;50.118;19.962;2023-04-28T07:43:30;13.05;;;6.93;;
73170;SDS011;61381;50.118;19.962;2023-04-28T07:48:32;8.15;;;5.82;;
73170;SDS011;61381;50.118;19.962;2023-04-28T07:53:33;11.70;;;6.32;;
73170;SDS011;61381;50.118;19.962;2023-04-28T07:58:36;12.73;;;5.90;;
73170;SDS011;61381;50.118;19.962;2023-04-28T08:03:37;9.57;;;5.13;;
73170;SDS011;61381;50.118;19.962;2023-04-28T08:08:38;9.60;;;5.53;;
73170;SDS011;61381;50.118;19.962;2023-04-28T08:13:40;9.20;;;4.80;;
73170;SDS011;61381;50.118;19.962;2023-04-28T08:18:41;7.60;;;5.07;;
73170;SDS011;61381;50.118;19.962;2023-04-28T08:23:42;13.13;;;5.20;;
73170;SDS011;61381;50.118;19.962;2023-04-28T08:28:45;9.82;;;5.07;;
73170;SDS011;61381;50.118;19.962;2023-04-28T08:33:46;9.48;;;5.10;;
73170;SDS011;61381;50.118;19.962;2023-04-28T08:38:47;10.10;;;5.20;;
73170;SDS011;61381;50.118;19.962;2023-04-28T08:43:49;9.32;;;4.63;;
73170;SDS011;61381;50.118;19.962;2023-04-28T08:48:50;6.80;;;4.43;;
73170;SDS011;61381;50.118;19.962;2023-04-28T08:53:59;6.97;;;4.10;;
73170;SDS011;61381;50.118;19.962;2023-04-28T08:59:03;6.47;;;3.85;;
73170;SDS011;61381;50.118;19.962;2023-04-28T09:04:04;8.40;;;3.50;;
73170;SDS011;61381;50.118;19.962;2023-04-28T09:09:19;5.25;;;3.08;;
73170;SDS011;61381;50.118;19.962;2023-04-28T09:14:22;7.32;;;3.92;;
73170;SDS011;61381;50.118;19.962;2023-04-28T09:19:23;5.80;;;3.63;;
73170;SDS011;61381;50.118;19.962;2023-04-28T09:24:33;6.18;;;3.50;;
73170;SDS011;61381;50.118;19.962;2023-04-28T09:29:37;5.95;;;3.92;;
73170;SDS011;61381;50.118;19.962;2023-04-28T09:34:42;5.53;;;4.05;;
73170;SDS011;61381;50.118;19.962;2023-04-28T09:39:44;7.68;;;3.92;;
73170;SDS011;61381;50.118;19.962;2023-04-28T09:44:52;8.07;;;3.40;;
73170;SDS011;61381;50.118;19.962;2023-04-28T09:49:54;4.20;;;3.28;;
73170;SDS011;61381;50.118;19.962;2023-04-28T09:54:55;6.50;;;3.78;;
73170;SDS011;61381;50.118;19.962;2023-04-28T09:59:58;6.03;;;3.72;;
73170;SDS011;61381;50.118;19.962;2023-04-28T10:05:00;9.93;;;4.25;;
73170;SDS011;61381;50.118;19.962;2023-04-28T10:10:01;7.53;;;3.70;;
73170;SDS011;61381;50.118;19.962;2023-04-28T10:15:05;6.63;;;3.85;;
73170;SDS011;61381;50.118;19.962;2023-04-28T10:20:09;4.63;;;2.92;;
73170;SDS011;61381;50.118;19.962;2023-04-28T10:25:16;7.28;;;3.92;;
73170;SDS011;61381;50.118;19.962;2023-04-28T10:30:28;6.07;;;3.47;;
73170;SDS011;61381;50.118;19.962;2023-04-28T10:35:41;5.75;;;3.72;;
73170;SDS011;61381;50.118;19.962;2023-04-28T10:40:44;8.20;;;3.90;;
73170;SDS011;61381;50.118;19.962;2023-04-28T10:46:00;6.40;;;3.78;;
73170;SDS011;61381;50.118;19.962;2023-04-28T10:51:20;7.03;;;3.70;;
73170;SDS011;61381;50.118;19.962;2023-04-28T10:56:27;6.95;;;3.13;;
73170;SDS011;61381;50.118;19.962;2023-04-28T11:01:30;5.80;;;3.88;;
73170;SDS011;61381;50.118;19.962;2023-04-28T11:06:32;4.93;;;3.63;;
73170;SDS011;61381;50.118;19.962;2023-04-28T11:11:34;6.97;;;4.43;;
73170;SDS011;61381;50.118;19.962;2023-04-28T11:16:36;7.20;;;3.90;;
73170;SDS011;61381;50.118;19.962;2023-04-28T11:21:48;6.78;;;3.83;;
73170;SDS011;61381;50.118;19.962;2023-04-28T11:26:51;5.35;;;3.22;;
73170;SDS011;61381;50.118;19.962;2023-04-28T11:31:54;4.43;;;2.47;;
73170;SDS011;61381;50.118;19.962;2023-04-28T11:36:55;5.07;;;2.97;;
73170;SDS011;61381;50.118;19.962;2023-04-28T11:41:56;5.40;;;3.22;;
73170;SDS011;61381;50.118;19.962;2023-04-28T11:46:59;7.45;;;3.60;;
73170;SDS011;61381;50.118;19.962;2023-04-28T11:52:03;8.45;;;3.60;;
73170;SDS011;61381;50.118;19.962;2023-04-28T11:57:05;6.00;;;2.78;;
73170;SDS011;61381;50.118;19.962;2023-04-28T12:02:08;6.45;;;3.60;;
73170;SDS011;61381;50.118;19.962;2023-04-28T12:07:10;10.85;;;3.55;;
73170;SDS011;61381;50.118;19.962;2023-04-28T12:12:13;5.53;;;3.78;;
73170;SDS011;61381;50.118;19.962;2023-04-28T12:17:23;6.82;;;3.75;;
73170;SDS011;61381;50.118;19.962;2023-04-28T12:22:24;5.55;;;3.15;;
73170;SDS011;61381;50.118;19.962;2023-04-28T12:27:26;5.40;;;3.00;;
73170;SDS011;61381;50.118;19.962;2023-04-28T12:32:37;7.75;;;2.90;;
73170;SDS011;61381;50.118;19.962;2023-04-28T12:37:40;9.13;;;4.40;;
73170;SDS011;61381;50.118;19.962;2023-04-28T12:42:42;5.72;;;4.25;;
73170;SDS011;61381;50.118;19.962;2023-04-28T12:47:46;7.55;;;3.08;;
73170;SDS011;61381;50.118;19.962;2023-04-28T12:52:47;5.32;;;3.70;;
73170;SDS011;61381;50.118;19.962;2023-04-28T12:57:48;6.93;;;4.22;;
73170;SDS011;61381;50.118;19.962;2023-04-28T13:02:51;4.97;;;3.22;;
73170;SDS011;61381;50.118;19.962;2023-04-28T13:07:52;6.22;;;3.92;;
73170;SDS011;61381;50.118;19.962;2023-04-28T13:12:53;6.75;;;3.50;;
73170;SDS011;61381;50.118;19.962;2023-04-28T13:17:55;7.35;;;3.85;;
73170;SDS011;61381;50.118;19.962;2023-04-28T13:22:56;7.25;;;4.78;;
73170;SDS011;61381;50.118;19.962;2023-04-28T13:27:57;6.30;;;3.88;;
73170;SDS011;61381;50.118;19.962;2023-04-28T13:33:00;6.28;;;3.78;;
73170;SDS011;61381;50.118;19.962;2023-04-28T13:38:01;7.38;;;3.75;;
73170;SDS011;61381;50.118;19.962;2023-04-28T13:43:02;6.80;;;3.65;;
73170;SDS011;61381;50.118;19.962;2023-04-28T13:48:04;6.07;;;3.55;;
73170;SDS011;61381;50.118;19.962;2023-04-28T13:53:05;7.10;;;3.80;;
73170;SDS011;61381;50.118;19.962;2023-04-28T13:58:06;8.15;;;4.38;;
73170;SDS011;61381;50.118;19.962;2023-04-28T14:03:09;6.72;;;4.05;;
73170;SDS011;61381;50.118;19.962;2023-04-28T14:08:10;11.20;;;4.20;;
73170;SDS011;61381;50.118;19.962;2023-04-28T14:13:11;6.30;;;4.05;;
73170;SDS011;61381;50.118;19.962;2023-04-28T14:18:13;6.47;;;4.18;;
73170;SDS011;61381;50.118;19.962;2023-04-28T14:23:14;6.60;;;4.05;;
73170;SDS011;61381;50.118;19.962;2023-04-28T14:28:15;6.63;;;3.92;;
73170;SDS011;61381;50.118;19.962;2023-04-28T14:33:18;8.07;;;4.32;;
73170;SDS011;61381;50.118;19.962;2023-04-28T14:38:19;7.65;;;3.53;;
73170;SDS011;61381;50.118;19.962;2023-04-28T14:43:20;7.35;;;3.95;;
73170;SDS011;61381;50.118;19.962;2023-04-28T14:48:22;7.55;;;3.55;;
73170;SDS011;61381;50.118;19.962;2023-04-28T14:53:24;6.75;;;3.70;;
73170;SDS011;61381;50.118;19.962;2023-04-28T14:58:25;9.60;;;4.55;;
73170;SDS011;61381;50.118;19.962;2023-04-28T15:03:27;6.38;;;3.47;;
73170;SDS011;61381;50.118;19.962;2023-04-28T15:08:28;6.18;;;4.05;;
73170;SDS011;61381;50.118;19.962;2023-04-28T15:13:29;6.13;;;3.30;;
73170;SDS011;61381;50.118;19.962;2023-04-28T15:18:31;4.38;;;3.28;;
73170;SDS011;61381;50.118;19.962;2023-04-28T15:23:32;5.07;;;3.22;;
73170;SDS011;61381;50.118;19.962;2023-04-28T15:28:34;6.95;;;3.40;;
73170;SDS011;61381;50.118;19.962;2023-04-28T15:33:36;4.57;;;3.20;;
73170;SDS011;61381;50.118;19.962;2023-04-28T15:38:37;5.57;;;3.47;;
73170;SDS011;61381;50.118;19.962;2023-04-28T15:43:38;8.30;;;3.45;;
73170;SDS011;61381;50.118;19.962;2023-04-28T15:48:40;6.25;;;3.40;;
73170;SDS011;61381;50.118;19.962;2023-04-28T15:53:41;7.95;;;3.55;;
73170;SDS011;61381;50.118;19.962;2023-04-28T15:58:42;6.30;;;3.55;;
73170;SDS011;61381;50.118;19.962;2023-04-28T16:03:44;5.13;;;3.30;;
73170;SDS011;61381;50.118;19.962;2023-04-28T16:08:46;8.15;;;3.15;;
73170;SDS011;61381;50.118;19.962;2023-04-28T16:13:47;4.20;;;3.20;;
73170;SDS011;61381;50.118;19.962;2023-04-28T16:18:49;6.50;;;3.13;;
73170;SDS011;61381;50.118;19.962;2023-04-28T16:23:50;3.05;;;2.63;;
73170;SDS011;61381;50.118;19.962;2023-04-28T16:28:51;5.53;;;3.05;;
73170;SDS011;61381;50.118;19.962;2023-04-28T16:33:54;4.32;;;3.40;;
73170;SDS011;61381;50.118;19.962;2023-04-28T16:38:55;5.38;;;3.75;;
73170;SDS011;61381;50.118;19.962;2023-04-28T16:43:56;7.28;;;3.60;;
73170;SDS011;61381;50.118;19.962;2023-04-28T16:48:58;6.13;;;3.30;;
73170;SDS011;61381;50.118;19.962;2023-04-28T16:53:59;4.53;;;3.33;;
73170;SDS011;61381;50.118;19.962;2023-04-28T16:59:00;7.72;;;3.28;;
73170;SDS011;61381;50.118;19.962;2023-04-28T17:04:03;4.82;;;3.30;;
73170;SDS011;61381;50.118;19.962;2023-04-28T17:09:04;5.00;;;3.60;;
73170;SDS011;61381;50.118;19.962;2023-04-28T17:14:05;6.30;;;3.58;;
73170;SDS011;61381;50.118;19.962;2023-04-28T17:19:08;4.30;;;2.90;;
73170;SDS011;61381;50.118;19.962;2023-04-28T17:24:09;5.50;;;3.28;;
73170;SDS011;61381;50.118;19.962;2023-04-28T17:29:10;10.32;;;5.22;;
73170;SDS011;61381;50.118;19.962;2023-04-28T17:34:13;9.18;;;5.45;;
73170;SDS011;61381;50.118;19.962;2023-04-28T17:39:14;9.02;;;4.68;;
73170;SDS011;61381;50.118;19.962;2023-04-28T17:44:15;8.68;;;3.88;;
73170;SDS011;61381;50.118;19.962;2023-04-28T17:49:17;4.68;;;3.35;;
73170;SDS011;61381;50.118;19.962;2023-04-28T17:54:18;8.70;;;4.40;;
73170;SDS011;61381;50.118;19.962;2023-04-28T17:59:19;10.73;;;4.93;;
73170;SDS011;61381;50.118;19.962;2023-04-28T18:04:22;15.23;;;5.88;;
73170;SDS011;61381;50.118;19.962;2023-04-28T18:09:23;13.88;;;6.95;;
73170;SDS011;61381;50.118;19.962;2023-04-28T18:14:24;9.93;;;6.20;;
73170;SDS011;61381;50.118;19.962;2023-04-28T18:19:26;21.30;;;9.88;;
73170;SDS011;61381;50.118;19.962;2023-04-28T18:24:27;9.57;;;5.70;;
73170;SDS011;61381;50.118;19.962;2023-04-28T18:29:28;11.65;;;6.45;;
73170;SDS011;61381;50.118;19.962;2023-04-28T18:34:31;12.52;;;7.38;;
73170;SDS011;61381;50.118;19.962;2023-04-28T18:39:32;10.40;;;5.53;;
73170;SDS011;61381;50.118;19.962;2023-04-28T18:44:33;12.88;;;6.55;;
73170;SDS011;61381;50.118;19.962;2023-04-28T18:49:35;10.98;;;5.10;;
73170;SDS011;61381;50.118;19.962;2023-04-28T18:54:36;7.57;;;5.05;;
73170;SDS011;61381;50.118;19.962;2023-04-28T18:59:37;9.20;;;4.90;;
73170;SDS011;61381;50.118;19.962;2023-04-28T19:04:40;7.85;;;5.22;;
73170;SDS011;61381;50.118;19.962;2023-04-28T19:09:41;7.57;;;4.15;;
73170;SDS011;61381;50.118;19.962;2023-04-28T19:14:42;9.35;;;5.20;;
73170;SDS011;61381;50.118;19.962;2023-04-28T19:19:44;8.32;;;5.13;;
73170;SDS011;61381;50.118;19.962;2023-04-28T19:24:45;8.43;;;4.88;;
73170;SDS011;61381;50.118;19.962;2023-04-28T19:29:46;13.95;;;6.03;;
73170;SDS011;61381;50.118;19.962;2023-04-28T19:34:49;6.45;;;4.47;;
73170;SDS011;61381;50.118;19.962;2023-04-28T19:39:50;10.90;;;5.35;;
73170;SDS011;61381;50.118;19.962;2023-04-28T19:44:52;9.40;;;5.50;;
73170;SDS011;61381;50.118;19.962;2023-04-28T19:49:56;12.02;;;6.13;;
73170;SDS011;61381;50.118;19.962;2023-04-28T19:54:57;13.02;;;7.70;;
73170;SDS011;61381;50.118;19.962;2023-04-28T19:59:58;8.45;;;5.75;;
73170;SDS011;61381;50.118;19.962;2023-04-28T20:05:00;12.20;;;5.65;;
73170;SDS011;61381;50.118;19.962;2023-04-28T20:10:01;10.25;;;4.88;;
73170;SDS011;61381;50.118;19.962;2023-04-28T20:15:03;11.15;;;5.90;;
73170;SDS011;61381;50.118;19.962;2023-04-28T20:20:06;7.97;;;5.30;;
73170;SDS011;61381;50.118;19.962;2023-04-28T20:25:08;11.02;;;5.35;;
73170;SDS011;61381;50.118;19.962;2023-04-28T20:30:09;9.65;;;6.20;;
73170;SDS011;61381;50.118;19.962;2023-04-28T20:35:12;8.23;;;5.30;;
73170;SDS011;61381;50.118;19.962;2023-04-28T20:40:13;10.05;;;5.03;;
73170;SDS011;61381;50.118;19.962;2023-04-28T20:45:14;12.27;;;5.82;;
73170;SDS011;61381;50.118;19.962;2023-04-28T20:50:17;10.85;;;5.95;;
73170;SDS011;61381;50.118;19.962;2023-04-28T20:55:18;10.18;;;6.00;;
73170;SDS011;61381;50.118;19.962;2023-04-28T21:00:19;12.10;;;6.60;;
73170;SDS011;61381;50.118;19.962;2023-04-28T21:05:22;11.15;;;6.20;;
73170;SDS011;61381;50.118;19.962;2023-04-28T21:10:23;10.73;;;6.57;;
73170;SDS011;61381;50.118;19.962;2023-04-28T21:15:24;10.27;;;5.90;;
73170;SDS011;61381;50.118;19.962;2023-04-28T21:20:26;11.00;;;6.38;;
73170;SDS011;61381;50.118;19.962;2023-04-28T21:25:27;12.82;;;6.75;;
73170;SDS011;61381;50.118;19.962;2023-04-28T21:30:28;8.23;;;5.25;;
73170;SDS011;61381;50.118;19.962;2023-04-28T21:35:30;11.20;;;5.75;;
73170;SDS011;61381;50.118;19.962;2023-04-28T21:40:31;12.40;;;6.60;;
73170;SDS011;61381;50.118;19.962;2023-04-28T21:45:32;11.52;;;5.70;;
73170;SDS011;61381;50.118;19.962;2023-04-28T21:50:35;11.02;;;6.85;;
73170;SDS011;61381;50.118;19.962;2023-04-28T21:55:36;16.63;;;8.52;;
73170;SDS011;61381;50.118;19.962;2023-04-28T22:00:38;13.27;;;7.50;;
73170;SDS011;61381;50.118;19.962;2023-04-28T22:05:43;19.10;;;11.40;;
73170;SDS011;61381;50.118;19.962;2023-04-28T22:10:44;18.00;;;9.23;;
73170;SDS011;61381;50.118;19.962;2023-04-28T22:15:45;14.68;;;8.27;;
73170;SDS011;61381;50.118;19.962;2023-04-28T22:20:48;16.85;;;9.25;;
73170;SDS011;61381;50.118;19.962;2023-04-28T22:25:49;103.90;;;36.55;;
73170;SDS011;61381;50.118;19.962;2023-04-28T22:30:49;43.75;;;16.83;;
73170;SDS011;61381;50.118;19.962;2023-04-28T22:35:52;27.65;;;14.18;;
73170;SDS011;61381;50.118;19.962;2023-04-28T22:40:53;28.55;;;13.30;;
73170;SDS011;61381;50.118;19.962;2023-04-28T22:45:55;18.13;;;10.00;;
73170;SDS011;61381;50.118;19.962;2023-04-28T22:50:58;18.48;;;8.70;;
73170;SDS011;61381;50.118;19.962;2023-04-28T22:55:59;22.58;;;10.98;;
73170;SDS011;61381;50.118;19.962;2023-04-28T23:01:00;20.63;;;9.73;;
73170;SDS011;61381;50.118;19.962;2023-04-28T23:06:03;16.05;;;8.38;;
73170;SDS011;61381;50.118;19.962;2023-04-28T23:11:04;15.73;;;8.38;;
73170;SDS011;61381;50.118;19.962;2023-04-28T23:16:05;18.58;;;9.32;;
73170;SDS011;61381;50.118;19.962;2023-04-28T23:21:08;16.15;;;8.63;;
73170;SDS011;61381;50.118;19.962;2023-04-28T23:26:09;18.05;;;10.57;;
73170;SDS011;61381;50.118;19.962;2023-04-28T23:31:10;18.30;;;10.80;;
73170;SDS011;61381;50.118;19.962;2023-04-28T23:36:12;16.17;;;8.88;;
73170;SDS011;61381;50.118;19.962;2023-04-28T23:41:13;15.93;;;9.05;;
73170;SDS011;61381;50.118;19.962;2023-04-28T23:46:14;102.88;;;35.55;;
73170;SDS011;61381;50.118;19.962;2023-04-28T23:51:17;47.22;;;17.00;;
73170;SDS011;61381;50.118;19.962;2023-04-28T23:56:17;31.02;;;13.38;;
